Time;durP1;ratioP1;P1;durP2;ratioP2;P2;SDS_P1;SDS_P2;PMS_P1;PMS_P2;Temp;Humidity;BMP_temperature;BMP_pressure;BME280_temperature;BME280_humidity;BME280_pressure;Samples;Min_cycle;Max_cycle;Signal;HPM_P1;HPM_P2
2022/01/04 00:00:14;;;;;;;8.00;4.13;;;;;;;;;;5022175;28;20049;-78
2022/01/04 00:02:40;;;;;;;6.80;3.75;;;;;;;;;;5020881;28;20021;-77
2022/01/04 00:05:07;;;;;;;7.15;3.63;;;;;;;;;;5020688;28;20404;-77
2022/01/04 00:07:33;;;;;;;7.28;4.25;;;;;;;;;;5020759;28;20026;-78
2022/01/04 00:10:00;;;;;;;9.23;3.78;;;;;;;;;;5021854;28;20018;-77
2022/01/04 00:15:12;;;;;;;6.68;3.30;;;;;;;;;;5022102;28;20447;-78
2022/01/04 00:17:38;;;;;;;4.47;2.28;;;;;;;;;;5020851;28;20026;-78
2022/01/04 00:20:05;;;;;;;4.90;2.50;;;;;;;;;;5020326;28;20089;-78
2022/01/04 00:22:31;;;;;;;8.25;3.08;;;;;;;;;;5021771;28;20026;-78
2022/01/04 00:24:57;;;;;;;6.18;2.60;;;;;;;;;;5020815;28;20025;-79
2022/01/04 00:27:24;;;;;;;5.93;2.10;;;;;;;;;;5021415;28;20503;-78
2022/01/04 00:29:50;;;;;;;4.80;2.22;;;;;;;;;;5021719;28;20396;-78
2022/01/04 00:32:16;;;;;;;5.18;2.20;;;;;;;;;;5020711;28;20026;-78
2022/01/04 00:34:42;;;;;;;5.93;2.30;;;;;;;;;;5021869;28;20018;-78
2022/01/04 00:37:08;;;;;;;6.05;1.90;;;;;;;;;;5020590;28;20022;-78
2022/01/04 00:39:34;;;;;;;6.05;2.53;;;;;;;;;;5021231;28;20048;-78
2022/01/04 00:42:00;;;;;;;5.93;2.25;;;;;;;;;;5021169;28;20037;-78
2022/01/04 00:44:27;;;;;;;4.90;2.30;;;;;;;;;;5022679;28;20029;-78
2022/01/04 00:46:53;;;;;;;5.13;2.03;;;;;;;;;;5022952;28;20032;-78
2022/01/04 00:49:21;;;;;;;5.55;2.20;;;;;;;;;;5022898;28;20026;-78
2022/01/04 00:51:49;;;;;;;4.70;2.35;;;;;;;;;;5024197;28;20014;-79
2022/01/04 00:54:16;;;;;;;4.03;1.80;;;;;;;;;;5022061;28;20563;-78
2022/01/04 00:56:43;;;;;;;5.80;2.63;;;;;;;;;;5019491;28;20060;-78
2022/01/04 00:59:09;;;;;;;5.20;2.22;;;;;;;;;;5019978;28;20125;-78
2022/01/04 01:01:35;;;;;;;5.22;2.00;;;;;;;;;;5020839;28;20026;-77
2022/01/04 01:04:01;;;;;;;4.75;1.85;;;;;;;;;;5019719;28;20093;-78
2022/01/04 01:06:27;;;;;;;6.32;2.33;;;;;;;;;;5023582;28;20061;-77
2022/01/04 01:08:54;;;;;;;5.15;1.92;;;;;;;;;;5025242;28;20029;-78
2022/01/04 01:11:20;;;;;;;4.75;2.42;;;;;;;;;;5025246;28;20022;-78
2022/01/04 01:13:46;;;;;;;4.95;1.90;;;;;;;;;;5023107;28;20029;-78
2022/01/04 01:16:13;;;;;;;7.15;2.63;;;;;;;;;;5021946;28;20105;-78
2022/01/04 01:18:39;;;;;;;6.40;2.35;;;;;;;;;;5021425;28;20029;-78
2022/01/04 01:21:06;;;;;;;5.15;2.20;;;;;;;;;;5021517;28;20026;-77
2022/01/04 01:23:33;;;;;;;4.57;2.20;;;;;;;;;;5020390;28;20029;-78
2022/01/04 01:26:00;;;;;;;4.72;2.10;;;;;;;;;;5020730;28;20026;-78
2022/01/04 01:28:26;;;;;;;5.90;2.30;;;;;;;;;;5020852;28;20030;-78
2022/01/04 01:30:52;;;;;;;5.65;2.15;;;;;;;;;;5021303;28;20022;-77
2022/01/04 01:33:19;;;;;;;5.80;2.42;;;;;;;;;;5019608;28;20096;-78
2022/01/04 01:35:45;;;;;;;5.95;2.13;;;;;;;;;;5020641;28;20106;-78
2022/01/04 01:38:14;;;;;;;4.68;2.03;;;;;;;;;;5019042;28;20053;-78
2022/01/04 01:40:41;;;;;;;7.70;3.03;;;;;;;;;;5020921;28;20048;-77
2022/01/04 01:43:08;;;;;;;4.60;1.92;;;;;;;;;;5019076;28;20037;-78
2022/01/04 01:45:34;;;;;;;5.30;1.92;;;;;;;;;;5021224;28;20373;-78
2022/01/04 01:48:01;;;;;;;5.90;3.03;;;;;;;;;;5020983;28;20030;-77
2022/01/04 01:50:27;;;;;;;4.95;2.15;;;;;;;;;;5017894;28;20114;-79
2022/01/04 01:52:53;;;;;;;5.13;2.08;;;;;;;;;;5019988;28;20040;-77
2022/01/04 01:55:20;;;;;;;6.10;2.60;;;;;;;;;;5020920;28;20069;-76
2022/01/04 01:57:47;;;;;;;6.78;3.08;;;;;;;;;;5022488;28;20022;-77
2022/01/04 02:00:15;;;;;;;5.90;2.90;;;;;;;;;;5019415;28;20037;-78
2022/01/04 02:02:41;;;;;;;5.35;2.55;;;;;;;;;;5019303;28;20125;-78
2022/01/04 02:05:08;;;;;;;5.05;2.20;;;;;;;;;;5019043;28;20018;-78
2022/01/04 02:07:36;;;;;;;4.78;2.70;;;;;;;;;;5020410;28;20018;-78
2022/01/04 02:10:05;;;;;;;7.18;2.78;;;;;;;;;;5020477;28;20069;-78
2022/01/04 02:12:39;;;;;;;5.22;2.50;;;;;;;;;;5021089;28;20026;-79
2022/01/04 02:15:07;;;;;;;4.95;2.25;;;;;;;;;;5022106;28;20049;-77
2022/01/04 02:17:33;;;;;;;5.10;2.58;;;;;;;;;;5021124;28;20049;-78
2022/01/04 02:20:00;;;;;;;5.63;2.60;;;;;;;;;;5022442;28;20026;-78
2022/01/04 02:22:27;;;;;;;6.03;2.47;;;;;;;;;;5024611;28;20033;-77
2022/01/04 02:24:53;;;;;;;5.13;2.40;;;;;;;;;;5022990;28;20022;-78
2022/01/04 02:27:20;;;;;;;4.78;1.90;;;;;;;;;;5023249;28;20018;-77
2022/01/04 02:29:46;;;;;;;5.05;2.60;;;;;;;;;;5024571;28;20026;-78
2022/01/04 02:32:13;;;;;;;4.85;2.03;;;;;;;;;;5023577;28;20026;-77
2022/01/04 02:34:39;;;;;;;6.50;2.30;;;;;;;;;;5024587;28;20033;-77
2022/01/04 02:37:06;;;;;;;4.43;2.13;;;;;;;;;;5023070;28;20022;-77
2022/01/04 02:39:35;;;;;;;6.78;2.58;;;;;;;;;;5023958;28;20034;-78
2022/01/04 02:42:01;;;;;;;6.05;2.40;;;;;;;;;;5023602;28;20052;-78
2022/01/04 02:44:27;;;;;;;5.32;2.33;;;;;;;;;;5024291;28;20034;-78
2022/01/04 02:46:54;;;;;;;4.53;2.33;;;;;;;;;;5023908;28;20024;-78
2022/01/04 02:49:20;;;;;;;6.18;2.78;;;;;;;;;;5024426;28;20022;-78
2022/01/04 02:51:46;;;;;;;6.15;2.25;;;;;;;;;;5024562;28;20081;-78
2022/01/04 02:54:12;;;;;;;5.47;2.70;;;;;;;;;;5024274;28;20088;-78
2022/01/04 02:56:38;;;;;;;4.95;2.20;;;;;;;;;;5022441;28;20030;-80
2022/01/04 02:59:04;;;;;;;5.20;2.45;;;;;;;;;;5024391;28;20026;-78
2022/01/04 03:01:30;;;;;;;5.70;2.40;;;;;;;;;;5023604;28;20110;-78
2022/01/04 03:03:57;;;;;;;5.80;2.35;;;;;;;;;;5022639;28;20029;-79
2022/01/04 03:06:23;;;;;;;5.38;2.20;;;;;;;;;;5021452;28;20026;-79
2022/01/04 03:08:49;;;;;;;5.80;2.10;;;;;;;;;;5023531;28;20453;-79
2022/01/04 03:11:15;;;;;;;5.30;1.90;;;;;;;;;;5022491;28;20034;-78
2022/01/04 03:13:41;;;;;;;6.63;2.80;;;;;;;;;;5024205;28;20061;-78
2022/01/04 03:16:07;;;;;;;5.07;2.30;;;;;;;;;;5022029;28;20044;-78
2022/01/04 03:18:34;;;;;;;4.55;2.35;;;;;;;;;;5024517;28;20029;-77
2022/01/04 03:21:01;;;;;;;5.85;2.33;;;;;;;;;;5022178;28;20542;-78
2022/01/04 03:23:27;;;;;;;6.15;2.30;;;;;;;;;;5024026;28;20030;-77
2022/01/04 03:25:53;;;;;;;5.07;2.20;;;;;;;;;;5021539;28;20495;-77
2022/01/04 03:28:22;;;;;;;5.82;2.20;;;;;;;;;;5020305;28;20053;-78
2022/01/04 03:30:48;;;;;;;6.20;2.35;;;;;;;;;;5020074;28;20022;-76
2022/01/04 03:33:15;;;;;;;4.50;2.03;;;;;;;;;;5021620;28;20022;-78
2022/01/04 03:35:41;;;;;;;7.30;2.70;;;;;;;;;;5021256;28;20080;-77
2022/01/04 03:38:07;;;;;;;5.82;2.20;;;;;;;;;;5023405;28;20030;-77
2022/01/04 03:40:33;;;;;;;5.50;2.30;;;;;;;;;;5020820;28;20444;-77
2022/01/04 03:42:59;;;;;;;4.60;2.60;;;;;;;;;;5021400;28;20080;-78
2022/01/04 03:45:25;;;;;;;7.05;2.90;;;;;;;;;;5020999;28;20018;-78
2022/01/04 03:47:51;;;;;;;6.30;2.85;;;;;;;;;;5019755;28;20026;-77
2022/01/04 03:50:17;;;;;;;6.50;3.03;;;;;;;;;;5020372;28;20048;-78
2022/01/04 03:52:43;;;;;;;6.68;4.10;;;;;;;;;;5020159;28;20153;-77
2022/01/04 03:55:09;;;;;;;6.15;2.75;;;;;;;;;;5022094;28;20064;-78
2022/01/04 03:57:36;;;;;;;6.32;3.00;;;;;;;;;;5022588;28;20033;-78
2022/01/04 04:00:04;;;;;;;6.38;3.22;;;;;;;;;;5021117;28;20535;-78
2022/01/04 04:02:31;;;;;;;6.78;2.78;;;;;;;;;;5021255;28;20049;-78
2022/01/04 04:04:57;;;;;;;7.80;3.30;;;;;;;;;;5022910;28;20116;-78
2022/01/04 04:07:23;;;;;;;5.85;2.70;;;;;;;;;;5022251;28;20447;-78
2022/01/04 04:09:49;;;;;;;6.18;2.90;;;;;;;;;;5021729;28;20014;-78
2022/01/04 04:12:15;;;;;;;5.88;2.85;;;;;;;;;;5022651;28;20080;-78
2022/01/04 04:14:42;;;;;;;5.55;2.92;;;;;;;;;;5021290;28;20030;-78
2022/01/04 04:17:08;;;;;;;6.82;3.00;;;;;;;;;;5022593;28;20030;-78
2022/01/04 04:19:34;;;;;;;8.70;2.75;;;;;;;;;;5024130;28;20018;-79
2022/01/04 04:22:00;;;;;;;6.80;2.95;;;;;;;;;;5025484;28;20048;-79
2022/01/04 04:24:26;;;;;;;6.53;2.80;;;;;;;;;;5023226;28;20022;-79
2022/01/04 04:26:52;;;;;;;4.78;2.50;;;;;;;;;;5022866;28;20574;-78
2022/01/04 04:29:18;;;;;;;5.38;2.70;;;;;;;;;;5021713;28;20036;-78
2022/01/04 04:31:45;;;;;;;6.78;3.03;;;;;;;;;;5021532;28;20014;-78
2022/01/04 04:34:11;;;;;;;6.63;3.15;;;;;;;;;;5022071;28;20026;-78
2022/01/04 04:36:37;;;;;;;9.65;3.42;;;;;;;;;;5020936;28;20104;-78
2022/01/04 04:39:03;;;;;;;5.10;2.42;;;;;;;;;;5020390;28;20030;-78
2022/01/04 04:41:29;;;;;;;4.75;2.80;;;;;;;;;;5018666;28;20437;-78
2022/01/04 04:43:55;;;;;;;5.35;2.65;;;;;;;;;;5019388;28;20055;-78
2022/01/04 04:46:22;;;;;;;6.00;2.97;;;;;;;;;;5020286;28;20018;-78
2022/01/04 04:48:48;;;;;;;5.97;2.95;;;;;;;;;;5019064;28;20021;-78
2022/01/04 04:51:14;;;;;;;7.38;2.80;;;;;;;;;;5017553;28;20018;-78
2022/01/04 04:53:40;;;;;;;6.15;2.97;;;;;;;;;;5018377;28;20105;-78
2022/01/04 04:56:06;;;;;;;4.88;2.55;;;;;;;;;;5018884;28;20175;-78
2022/01/04 04:58:32;;;;;;;5.32;2.50;;;;;;;;;;5020459;28;20034;-78
2022/01/04 05:00:58;;;;;;;6.45;3.00;;;;;;;;;;5019762;28;20029;-78
2022/01/04 05:03:25;;;;;;;6.68;3.05;;;;;;;;;;5021171;28;20032;-79
2022/01/04 05:05:51;;;;;;;7.90;3.38;;;;;;;;;;5018919;28;20121;-78
2022/01/04 05:08:17;;;;;;;5.72;3.13;;;;;;;;;;5020065;28;20037;-77
2022/01/04 05:10:43;;;;;;;5.60;2.72;;;;;;;;;;5021381;28;20029;-78
2022/01/04 05:13:09;;;;;;;7.15;3.03;;;;;;;;;;5020787;28;20034;-78
2022/01/04 05:15:35;;;;;;;6.43;3.50;;;;;;;;;;5020421;28;20369;-78
2022/01/04 05:18:02;;;;;;;6.38;3.60;;;;;;;;;;5020634;28;20029;-79
2022/01/04 05:20:28;;;;;;;7.93;3.40;;;;;;;;;;5020302;28;20026;-78
2022/01/04 05:22:54;;;;;;;6.32;3.28;;;;;;;;;;5019936;28;20054;-78
2022/01/04 05:25:20;;;;;;;6.32;3.50;;;;;;;;;;5020722;28;20018;-78
2022/01/04 05:27:46;;;;;;;6.35;3.33;;;;;;;;;;5017312;28;20021;-78
2022/01/04 05:30:12;;;;;;;5.65;3.28;;;;;;;;;;5020812;28;20037;-78
2022/01/04 05:32:38;;;;;;;5.97;3.42;;;;;;;;;;5019009;28;20021;-78
2022/01/04 05:35:04;;;;;;;5.97;3.42;;;;;;;;;;5018370;28;20033;-77
2022/01/04 05:37:30;;;;;;;6.90;3.63;;;;;;;;;;5018396;28;20026;-77
2022/01/04 05:39:56;;;;;;;8.38;3.60;;;;;;;;;;5020079;28;20080;-78
2022/01/04 05:42:22;;;;;;;5.82;3.15;;;;;;;;;;5019443;28;20026;-78
2022/01/04 05:44:49;;;;;;;5.43;3.30;;;;;;;;;;5021084;28;20037;-78
2022/01/04 05:47:15;;;;;;;5.65;3.28;;;;;;;;;;5018891;28;20492;-78
2022/01/04 05:49:41;;;;;;;6.82;3.47;;;;;;;;;;5019225;28;20026;-78
2022/01/04 05:52:07;;;;;;;7.15;3.92;;;;;;;;;;5019895;28;20053;-78
2022/01/04 05:54:33;;;;;;;6.97;3.60;;;;;;;;;;5021143;28;20042;-78
2022/01/04 05:56:59;;;;;;;5.85;3.65;;;;;;;;;;5024588;28;20134;-77
2022/01/04 05:59:25;;;;;;;7.10;4.63;;;;;;;;;;5025215;28;20048;-77
2022/01/04 06:01:51;;;;;;;6.40;3.65;;;;;;;;;;5025176;28;20057;-78
2022/01/04 06:04:17;;;;;;;6.45;3.60;;;;;;;;;;5023240;28;20041;-78
2022/01/04 06:06:43;;;;;;;5.70;3.50;;;;;;;;;;5024692;28;20368;-76
2022/01/04 06:09:19;;;;;;;5.95;3.55;;;;;;;;;;5024572;28;20522;-77
2022/01/04 06:17:00;;;;;;;7.47;3.88;;;;;;;;;;5024537;28;20037;-78
2022/01/04 06:19:26;;;;;;;8.50;3.60;;;;;;;;;;5023725;28;20030;-79
2022/01/04 06:21:52;;;;;;;8.70;5.28;;;;;;;;;;5023029;28;20088;-77
2022/01/04 06:24:18;;;;;;;7.45;4.10;;;;;;;;;;5021017;28;20065;-77
2022/01/04 06:26:44;;;;;;;5.82;3.65;;;;;;;;;;5022611;28;20455;-78
2022/01/04 06:29:11;;;;;;;12.60;7.25;;;;;;;;;;5022100;28;20017;-78
2022/01/04 06:31:38;;;;;;;13.00;7.03;;;;;;;;;;5022902;28;20017;-77
2022/01/04 06:34:04;;;;;;;9.05;5.18;;;;;;;;;;5024586;28;20404;-79
2022/01/04 06:36:30;;;;;;;5.70;3.42;;;;;;;;;;5023211;28;20399;-82
2022/01/04 06:38:56;;;;;;;6.25;3.08;;;;;;;;;;5024512;28;20045;-78
2022/01/04 06:41:22;;;;;;;5.78;3.47;;;;;;;;;;5022618;28;20033;-78
2022/01/04 06:43:49;;;;;;;7.03;3.38;;;;;;;;;;5020685;28;20061;-79
2022/01/04 06:46:15;;;;;;;7.55;3.45;;;;;;;;;;5020715;28;20022;-79
2022/01/04 06:48:42;;;;;;;7.07;4.18;;;;;;;;;;5021124;28;20030;-78
2022/01/04 06:51:08;;;;;;;7.72;3.58;;;;;;;;;;5021257;28;20022;-78
2022/01/04 06:53:34;;;;;;;6.13;3.47;;;;;;;;;;5020544;28;20138;-78
2022/01/04 06:56:00;;;;;;;7.10;3.90;;;;;;;;;;5021632;28;20034;-78
2022/01/04 06:58:26;;;;;;;7.20;4.13;;;;;;;;;;5021674;28;20036;-78
2022/01/04 07:00:52;;;;;;;8.68;4.43;;;;;;;;;;5022415;28;20114;-78
2022/01/04 07:03:18;;;;;;;7.65;4.40;;;;;;;;;;5022149;28;20559;-77
2022/01/04 07:05:44;;;;;;;9.02;4.95;;;;;;;;;;5021617;28;20329;-78
2022/01/04 07:08:10;;;;;;;8.07;5.57;;;;;;;;;;5022657;28;20050;-77
2022/01/04 07:10:36;;;;;;;9.50;6.20;;;;;;;;;;5021526;28;20022;-77
2022/01/04 07:13:03;;;;;;;10.25;6.35;;;;;;;;;;5019200;28;20033;-77
2022/01/04 07:15:29;;;;;;;10.38;7.00;;;;;;;;;;5020156;28;20044;-77
2022/01/04 07:17:55;;;;;;;11.73;6.88;;;;;;;;;;5019687;28;20473;-77
2022/01/04 07:20:21;;;;;;;12.90;7.57;;;;;;;;;;5022021;28;20049;-78
2022/01/04 07:22:48;;;;;;;11.38;7.40;;;;;;;;;;5022581;28;20026;-78
2022/01/04 07:25:15;;;;;;;11.30;7.07;;;;;;;;;;5021764;28;20114;-78
2022/01/04 07:27:41;;;;;;;11.60;7.63;;;;;;;;;;5020777;28;20561;-78
2022/01/04 07:30:07;;;;;;;10.90;8.20;;;;;;;;;;5023497;28;20029;-78
2022/01/04 07:32:33;;;;;;;11.30;7.15;;;;;;;;;;5020691;28;20025;-78
2022/01/04 07:34:59;;;;;;;13.73;7.30;;;;;;;;;;5021799;28;20026;-78
2022/01/04 07:37:25;;;;;;;10.10;6.78;;;;;;;;;;5020610;28;20029;-78
2022/01/04 07:39:52;;;;;;;11.70;7.80;;;;;;;;;;5020118;28;20018;-78
2022/01/04 07:42:18;;;;;;;10.57;8.30;;;;;;;;;;5021460;28;20038;-78
2022/01/04 07:44:45;;;;;;;11.45;8.02;;;;;;;;;;5021227;28;20022;-78
2022/01/04 07:47:11;;;;;;;13.13;9.00;;;;;;;;;;5020548;28;20025;-79
2022/01/04 07:49:37;;;;;;;11.07;7.82;;;;;;;;;;5019741;28;20041;-79
2022/01/04 07:52:04;;;;;;;11.38;8.18;;;;;;;;;;5021029;28;20092;-78
2022/01/04 07:54:30;;;;;;;11.10;7.07;;;;;;;;;;5020705;28;20104;-78
2022/01/04 07:56:56;;;;;;;13.10;8.05;;;;;;;;;;5021560;28;20076;-78
2022/01/04 07:59:23;;;;;;;10.30;6.82;;;;;;;;;;5019169;28;20064;-77
2022/01/04 08:01:49;;;;;;;15.48;8.45;;;;;;;;;;5020048;28;20053;-78
2022/01/04 08:04:15;;;;;;;10.60;7.72;;;;;;;;;;5021303;28;20049;-78
2022/01/04 08:06:41;;;;;;;10.50;7.13;;;;;;;;;;5021164;28;20029;-77
2022/01/04 08:09:07;;;;;;;12.35;8.35;;;;;;;;;;5017272;28;20025;-77
2022/01/04 08:11:33;;;;;;;13.10;8.07;;;;;;;;;;5017452;28;20435;-77
2022/01/04 08:13:59;;;;;;;11.65;8.55;;;;;;;;;;5019524;28;20026;-77
2022/01/04 08:16:25;;;;;;;11.02;8.23;;;;;;;;;;5021295;28;20495;-77
2022/01/04 08:18:51;;;;;;;12.05;8.43;;;;;;;;;;5018239;28;20022;-78
2022/01/04 08:21:17;;;;;;;11.65;8.55;;;;;;;;;;5021563;28;20037;-78
2022/01/04 08:23:43;;;;;;;12.45;8.38;;;;;;;;;;5019055;28;20068;-78
2022/01/04 08:26:10;;;;;;;13.23;9.00;;;;;;;;;;5018308;28;20052;-79
2022/01/04 08:28:36;;;;;;;12.75;9.30;;;;;;;;;;5018497;28;20032;-78
2022/01/04 08:31:02;;;;;;;14.82;10.95;;;;;;;;;;5017667;28;20030;-78
2022/01/04 08:33:31;;;;;;;15.68;10.20;;;;;;;;;;5020801;28;20029;-78
2022/01/04 08:35:57;;;;;;;14.52;9.95;;;;;;;;;;5019799;28;20053;-78
2022/01/04 08:38:23;;;;;;;16.48;11.40;;;;;;;;;;5021300;28;20026;-78
2022/01/04 08:40:49;;;;;;;15.90;10.75;;;;;;;;;;5019498;28;20087;-78
2022/01/04 08:43:16;;;;;;;16.95;11.68;;;;;;;;;;5019216;28;20022;-78
2022/01/04 08:45:42;;;;;;;18.15;12.48;;;;;;;;;;5020782;28;20033;-78
2022/01/04 08:48:09;;;;;;;18.20;14.10;;;;;;;;;;5019510;28;20052;-78
2022/01/04 08:50:35;;;;;;;20.92;13.98;;;;;;;;;;5020233;28;20075;-79
2022/01/04 08:53:02;;;;;;;17.80;13.23;;;;;;;;;;5017869;28;20389;-77
2022/01/04 08:55:28;;;;;;;21.67;14.30;;;;;;;;;;5018725;28;20088;-78
2022/01/04 08:57:54;;;;;;;20.48;14.93;;;;;;;;;;5018072;28;20056;-77
2022/01/04 09:00:20;;;;;;;19.52;14.15;;;;;;;;;;5020624;28;20029;-77
2022/01/04 09:02:46;;;;;;;18.85;14.85;;;;;;;;;;5018612;28;20080;-77
2022/01/04 09:05:12;;;;;;;23.15;15.73;;;;;;;;;;5018299;28;20050;-78
2022/01/04 09:07:40;;;;;;;20.20;15.63;;;;;;;;;;5019904;28;20042;-78
2022/01/04 09:10:06;;;;;;;23.85;16.00;;;;;;;;;;5018914;28;20189;-77
2022/01/04 09:12:51;;;;;;;23.92;17.23;;;;;;;;;;5019271;28;20026;-78
2022/01/04 09:15:31;;;;;;;27.77;18.80;;;;;;;;;;5020364;28;20089;-77
2022/01/04 09:20:45;;;;;;;29.10;20.92;;;;;;;;;;5019268;28;20100;-77
2022/01/04 09:23:13;;;;;;;28.10;20.77;;;;;;;;;;5017812;28;20053;-76
2022/01/04 09:25:39;;;;;;;27.55;22.02;;;;;;;;;;5018797;28;20067;-78
2022/01/04 09:28:05;;;;;;;30.65;21.48;;;;;;;;;;5017861;28;20396;-79
2022/01/04 09:30:31;;;;;;;28.20;20.52;;;;;;;;;;5020520;28;20026;-80
2022/01/04 09:32:57;;;;;;;29.30;21.85;;;;;;;;;;5020060;28;20022;-80
2022/01/04 09:35:23;;;;;;;27.38;20.65;;;;;;;;;;5018071;28;20121;-78
2022/01/04 09:37:49;;;;;;;30.83;22.35;;;;;;;;;;5018633;28;20030;-78
2022/01/04 09:40:15;;;;;;;28.33;19.95;;;;;;;;;;5017933;28;20403;-78
2022/01/04 09:42:42;;;;;;;30.63;20.83;;;;;;;;;;5017684;28;20065;-77
2022/01/04 09:45:09;;;;;;;29.30;21.25;;;;;;;;;;5017569;28;20499;-78
2022/01/04 09:47:35;;;;;;;29.13;19.80;;;;;;;;;;5018327;28;20041;-77
2022/01/04 09:50:08;;;;;;;27.75;19.15;;;;;;;;;;5018151;28;20033;-78
2022/01/04 09:52:34;;;;;;;24.95;18.63;;;;;;;;;;5018815;28;20018;-76
2022/01/04 09:55:00;;;;;;;29.83;21.35;;;;;;;;;;5017555;28;20053;-77
2022/01/04 09:57:26;;;;;;;27.85;19.77;;;;;;;;;;5017412;28;20040;-77
2022/01/04 09:59:52;;;;;;;26.15;18.98;;;;;;;;;;5018307;28;20068;-77
2022/01/04 10:02:20;;;;;;;24.92;18.40;;;;;;;;;;5017887;28;20026;-77
2022/01/04 10:04:46;;;;;;;24.70;16.75;;;;;;;;;;5017563;28;20463;-77
2022/01/04 10:07:12;;;;;;;24.05;17.02;;;;;;;;;;5018779;28;20021;-78
2022/01/04 10:09:38;;;;;;;26.02;18.48;;;;;;;;;;5018456;28;20499;-79
2022/01/04 10:12:10;;;;;;;26.83;19.15;;;;;;;;;;5018732;28;20026;-78
2022/01/04 10:14:40;;;;;;;25.13;18.85;;;;;;;;;;5017363;28;20030;-78
2022/01/04 10:17:07;;;;;;;24.67;16.48;;;;;;;;;;5017985;28;20033;-79
2022/01/04 10:19:35;;;;;;;24.60;17.38;;;;;;;;;;5018092;28;20026;-77
2022/01/04 10:22:20;;;;;;;23.92;18.55;;;;;;;;;;5018475;28;20037;-78
2022/01/04 10:24:48;;;;;;;26.10;17.70;;;;;;;;;;5015889;28;20073;-77
2022/01/04 10:27:29;;;;;;;24.95;17.48;;;;;;;;;;5018109;28;20562;-79
2022/01/04 10:30:14;;;;;;;27.27;17.83;;;;;;;;;;5018131;28;20022;-78
2022/01/04 10:32:50;;;;;;;23.48;16.80;;;;;;;;;;5019012;28;20061;-77
2022/01/04 10:35:22;;;;;;;26.08;17.13;;;;;;;;;;5021237;28;20326;-77
2022/01/04 10:37:48;;;;;;;24.05;17.80;;;;;;;;;;5018746;28;20388;-78
2022/01/04 10:40:14;;;;;;;27.63;17.48;;;;;;;;;;5019786;28;20030;-79
2022/01/04 10:42:41;;;;;;;24.05;16.83;;;;;;;;;;5022092;28;20030;-77
2022/01/04 10:45:23;;;;;;;28.27;18.02;;;;;;;;;;5020335;28;20507;-79
2022/01/04 10:47:49;;;;;;;26.15;18.23;;;;;;;;;;5021689;28;20032;-78
2022/01/04 10:50:34;;;;;;;26.63;17.80;;;;;;;;;;5020748;28;20022;-78
2022/01/04 10:53:01;;;;;;;23.52;17.20;;;;;;;;;;5021882;28;20029;-78
2022/01/04 10:55:31;;;;;;;28.23;19.33;;;;;;;;;;5020790;28;20133;-77
2022/01/04 10:57:57;;;;;;;28.42;21.15;;;;;;;;;;5018627;28;20030;-78
2022/01/04 11:00:24;;;;;;;28.17;21.48;;;;;;;;;;5020338;28;20060;-78
2022/01/04 11:02:50;;;;;;;24.90;17.08;;;;;;;;;;5019324;28;20025;-79
2022/01/04 11:05:20;;;;;;;25.88;17.90;;;;;;;;;;5021134;28;20049;-78
2022/01/04 11:08:05;;;;;;;25.27;19.02;;;;;;;;;;5020111;28;20022;-78
2022/01/04 11:10:34;;;;;;;27.83;19.40;;;;;;;;;;5018104;28;20026;-78
2022/01/04 11:13:00;;;;;;;23.73;17.10;;;;;;;;;;5019924;28;20264;-79
2022/01/04 11:15:27;;;;;;;24.17;19.05;;;;;;;;;;5021477;28;20030;-78
2022/01/04 11:17:53;;;;;;;23.17;17.42;;;;;;;;;;5019609;28;20077;-78
2022/01/04 11:20:21;;;;;;;23.42;17.02;;;;;;;;;;5019438;28;20033;-78
2022/01/04 11:22:49;;;;;;;23.75;17.63;;;;;;;;;;5019012;28;20022;-78
2022/01/04 11:25:16;;;;;;;23.88;16.52;;;;;;;;;;5020019;28;20022;-78
2022/01/04 11:27:43;;;;;;;22.85;17.42;;;;;;;;;;5020733;28;20373;-79
2022/01/04 11:30:17;;;;;;;22.05;17.00;;;;;;;;;;5020047;28;20149;-79
2022/01/04 11:32:46;;;;;;;20.58;15.43;;;;;;;;;;5019065;28;20053;-78
2022/01/04 11:35:12;;;;;;;22.15;16.88;;;;;;;;;;5019801;28;20179;-77
2022/01/04 11:37:42;;;;;;;19.48;13.90;;;;;;;;;;5020315;28;20026;-78
2022/01/04 11:40:26;;;;;;;23.98;15.73;;;;;;;;;;5018916;28;20018;-78
2022/01/04 11:42:56;;;;;;;21.17;14.93;;;;;;;;;;5019747;28;20030;-77
2022/01/04 11:45:42;;;;;;;21.60;16.20;;;;;;;;;;5018706;28;20022;-78
2022/01/04 11:48:27;;;;;;;20.60;14.02;;;;;;;;;;5019427;28;20026;-77
2022/01/04 11:50:54;;;;;;;18.25;13.55;;;;;;;;;;5019241;28;20032;-78
2022/01/04 11:53:20;;;;;;;22.13;14.98;;;;;;;;;;5016460;28;20488;-78
2022/01/04 11:55:54;;;;;;;18.35;13.52;;;;;;;;;;5019656;28;20029;-77
2022/01/04 11:58:23;;;;;;;19.25;14.50;;;;;;;;;;5020588;28;20025;-79
2022/01/04 12:01:11;;;;;;;23.20;17.23;;;;;;;;;;5020283;28;20054;-78
2022/01/04 12:03:41;;;;;;;19.35;14.27;;;;;;;;;;5020348;28;20022;-78
2022/01/04 12:06:08;;;;;;;24.40;18.40;;;;;;;;;;5017591;28;20030;-78
2022/01/04 12:08:35;;;;;;;21.80;15.57;;;;;;;;;;5018806;28;20018;-78
2022/01/04 12:11:01;;;;;;;33.22;24.48;;;;;;;;;;5017071;28;20492;-77
2022/01/04 12:13:47;;;;;;;24.13;18.83;;;;;;;;;;5017152;28;20049;-78
2022/01/04 12:16:13;;;;;;;23.00;15.10;;;;;;;;;;5018413;28;20026;-78
2022/01/04 12:18:39;;;;;;;19.05;14.45;;;;;;;;;;5017859;28;20030;-78
2022/01/04 12:21:14;;;;;;;19.42;14.07;;;;;;;;;;5018562;28;20064;-78
2022/01/04 12:23:40;;;;;;;21.40;15.52;;;;;;;;;;5017629;28;20026;-79
2022/01/04 12:26:11;;;;;;;20.75;14.68;;;;;;;;;;5016396;28;20037;-78
2022/01/04 12:28:38;;;;;;;18.48;14.40;;;;;;;;;;5017909;28;20017;-77
2022/01/04 12:31:17;;;;;;;19.88;14.93;;;;;;;;;;5017130;28;20113;-77
2022/01/04 12:33:44;;;;;;;21.40;14.98;;;;;;;;;;5017435;28;20030;-77
2022/01/04 12:36:11;;;;;;;20.58;14.65;;;;;;;;;;5017445;28;20447;-77
2022/01/04 12:38:37;;;;;;;20.95;14.95;;;;;;;;;;5017024;28;20033;-78
2022/01/04 12:41:04;;;;;;;22.40;15.55;;;;;;;;;;5016956;28;20037;-78
2022/01/04 12:43:32;;;;;;;19.08;15.45;;;;;;;;;;5018138;28;20030;-77
2022/01/04 12:45:58;;;;;;;21.25;14.30;;;;;;;;;;5018089;28;20053;-78
2022/01/04 12:48:44;;;;;;;21.05;15.68;;;;;;;;;;5018457;28;20022;-77
2022/01/04 12:51:26;;;;;;;24.25;17.20;;;;;;;;;;5017622;28;20052;-77
2022/01/04 12:53:52;;;;;;;23.10;16.43;;;;;;;;;;5017625;28;20052;-78
2022/01/04 12:56:19;;;;;;;20.15;15.30;;;;;;;;;;5015898;28;20262;-78
2022/01/04 12:58:45;;;;;;;26.73;19.30;;;;;;;;;;5017985;28;20026;-78
2022/01/04 13:01:14;;;;;;;31.65;22.15;;;;;;;;;;5018069;28;20034;-77
2022/01/04 13:03:40;;;;;;;27.65;19.23;;;;;;;;;;5016055;28;20029;-78
2022/01/04 13:06:06;;;;;;;27.35;21.08;;;;;;;;;;5016980;28;20034;-77
2022/01/04 13:08:35;;;;;;;24.55;19.25;;;;;;;;;;5015901;28;20357;-77
2022/01/04 13:11:04;;;;;;;21.27;15.93;;;;;;;;;;5015422;28;20033;-78
2022/01/04 13:13:33;;;;;;;22.63;14.95;;;;;;;;;;5017392;28;20061;-78
2022/01/04 13:16:18;;;;;;;22.70;15.70;;;;;;;;;;5015992;28;20033;-77
2022/01/04 13:18:45;;;;;;;22.92;15.63;;;;;;;;;;5016150;28;20057;-78
2022/01/04 13:21:11;;;;;;;21.83;15.15;;;;;;;;;;5016028;28;20028;-78
2022/01/04 13:23:41;;;;;;;21.75;16.60;;;;;;;;;;5015644;28;20453;-77
2022/01/04 13:26:09;;;;;;;22.15;15.68;;;;;;;;;;4995234;28;20018;-78
2022/01/04 13:28:36;;;;;;;22.67;16.08;;;;;;;;;;4996818;28;20019;-77
2022/01/04 13:31:02;;;;;;;21.25;15.60;;;;;;;;;;4995584;28;20053;-78
2022/01/04 13:33:28;;;;;;;22.45;15.65;;;;;;;;;;4996296;28;20037;-78
2022/01/04 13:35:56;;;;;;;21.33;14.52;;;;;;;;;;4998202;28;20034;-78
2022/01/04 13:38:23;;;;;;;20.08;15.15;;;;;;;;;;5010414;28;20040;-79
2022/01/04 13:40:50;;;;;;;22.85;17.38;;;;;;;;;;5016960;28;20032;-78
2022/01/04 13:43:17;;;;;;;19.73;14.73;;;;;;;;;;5019144;28;20026;-78
2022/01/04 13:45:48;;;;;;;22.90;16.02;;;;;;;;;;5021002;28;20026;-78
2022/01/04 13:48:15;;;;;;;21.75;15.10;;;;;;;;;;5016867;28;20045;-77
2022/01/04 13:50:43;;;;;;;20.65;14.93;;;;;;;;;;5015443;28;20392;-77
2022/01/04 13:53:11;;;;;;;20.90;14.80;;;;;;;;;;5016213;28;20113;-77
2022/01/04 13:55:43;;;;;;;21.52;15.02;;;;;;;;;;5015608;28;20069;-77
2022/01/04 13:58:28;;;;;;;20.20;14.82;;;;;;;;;;5018311;28;20033;-78
2022/01/04 14:00:55;;;;;;;22.08;14.55;;;;;;;;;;5017051;28;20034;-77
2022/01/04 14:03:31;;;;;;;21.85;14.60;;;;;;;;;;5015682;28;20109;-77
2022/01/04 14:05:57;;;;;;;19.80;14.50;;;;;;;;;;5014049;28;20022;-77
2022/01/04 14:08:42;;;;;;;19.33;14.27;;;;;;;;;;5014134;28;20036;-77
2022/01/04 14:11:08;;;;;;;18.83;14.00;;;;;;;;;;5016626;28;20440;-77
2022/01/04 14:13:39;;;;;;;18.60;14.73;;;;;;;;;;5017475;28;20076;-78
2022/01/04 14:16:12;;;;;;;20.90;13.70;;;;;;;;;;5018927;28;20022;-78
2022/01/04 14:18:58;;;;;;;16.92;12.18;;;;;;;;;;5021350;28;20060;-78
2022/01/04 14:21:32;;;;;;;17.48;14.13;;;;;;;;;;5018689;28;20030;-77
2022/01/04 14:23:59;;;;;;;22.70;14.43;;;;;;;;;;5020186;28;20033;-78
2022/01/04 14:26:27;;;;;;;21.92;15.82;;;;;;;;;;5019798;28;20489;-78
2022/01/04 14:28:53;;;;;;;22.13;15.23;;;;;;;;;;5021280;28;20443;-79
2022/01/04 14:31:19;;;;;;;23.45;15.70;;;;;;;;;;5019649;28;20124;-78
2022/01/04 14:33:45;;;;;;;20.45;14.57;;;;;;;;;;5021178;28;20061;-77
2022/01/04 14:36:11;;;;;;;19.70;14.25;;;;;;;;;;5021050;28;20263;-78
2022/01/04 14:38:37;;;;;;;18.08;14.43;;;;;;;;;;5020753;28;20124;-78
2022/01/04 14:41:03;;;;;;;20.08;14.80;;;;;;;;;;5020531;28;20026;-77
2022/01/04 14:43:29;;;;;;;18.25;12.75;;;;;;;;;;5022114;28;20057;-77